Time;durP1;ratioP1;P1;durP2;ratioP2;P2;SDS_P1;SDS_P2;PMS_P1;PMS_P2;Temp;Humidity;BMP_temperature;BMP_pressure;BME280_temperature;BME280_humidity;BME280_pressure;Samples;Min_cycle;Max_cycle;Signal;HPM_P1;HPM_P2
2024/04/24 00:00:49;;;;;;;44.90;27.40;;;;;;;6.23;96.46;98267.73;273546;1267;23064;-81
2024/04/24 00:08:03;;;;;;;50.90;26.20;;;;;;;6.20;96.82;98255.58;273982;1266;22269;-81
2024/04/24 00:14:28;;;;;;;46.70;26.70;;;;;;;6.28;97.37;98238.23;271537;1266;22517;-81
2024/04/24 00:21:15;;;;;;;49.40;27.50;;;;;;;6.31;98.08;98233.72;274010;1266;22276;-81
2024/04/24 00:27:32;;;;;;;47.30;28.00;;;;;;;6.33;98.44;98227.42;272647;1264;22967;-80
2024/04/24 00:34:15;;;;;;;45.20;26.30;;;;;;;6.32;98.15;98228.44;270792;1260;22530;-81
2024/04/24 00:40:46;;;;;;;43.60;25.00;;;;;;;6.28;98.76;98217.27;272031;1266;22644;-81
2024/04/24 00:46:49;;;;;;;41.90;26.10;;;;;;;6.28;99.46;98204.91;270980;1265;23903;-82
2024/04/24 00:52:50;;;;;;;43.20;25.30;;;;;;;6.26;99.56;98196.10;271803;1266;23780;-81
2024/04/24 00:58:52;;;;;;;42.30;25.80;;;;;;;6.18;99.06;98190.65;272541;1265;23014;-81
2024/04/24 01:04:53;;;;;;;39.90;24.80;;;;;;;6.18;99.87;98184.04;271170;1266;22515;-82
2024/04/24 01:11:35;;;;;;;41.90;23.60;;;;;;;6.19;100.00;98176.98;273320;1266;22365;-81
2024/04/24 01:18:46;;;;;;;42.20;24.60;;;;;;;6.22;100.00;98174.55;273961;1266;22362;-81
2024/04/24 01:25:19;;;;;;;45.60;24.80;;;;;;;6.19;100.00;98168.38;273659;1266;22392;-81
2024/04/24 01:31:48;;;;;;;41.10;22.30;;;;;;;6.21;100.00;98159.15;273758;1266;22449;-80
2024/04/24 01:38:33;;;;;;;42.20;25.40;;;;;;;6.22;100.00;98146.36;274036;1267;22261;-80
2024/04/24 01:44:55;;;;;;;42.10;25.50;;;;;;;6.25;100.00;98137.78;274180;1267;22228;-80
2024/04/24 01:50:57;;;;;;;38.30;23.70;;;;;;;6.24;100.00;98123.02;273479;1266;23741;-81
2024/04/24 01:57:19;;;;;;;37.10;23.10;;;;;;;6.25;100.00;98110.52;274379;1273;22329;-80
2024/04/24 02:03:43;;;;;;;35.50;21.40;;;;;;;6.28;100.00;98100.08;274006;1257;23154;-80
2024/04/24 02:09:52;;;;;;;31.40;20.10;;;;;;;6.31;100.00;98094.31;273076;1269;23135;-81
2024/04/24 02:15:54;;;;;;;31.50;19.40;;;;;;;6.34;100.00;98097.38;273134;1268;23780;-81
2024/04/24 02:22:21;;;;;;;30.50;19.30;;;;;;;6.37;100.00;98094.61;273222;1270;23032;-80
2024/04/24 02:29:04;;;;;;;31.30;18.10;;;;;;;6.39;100.00;98086.71;273374;1269;23286;-80
2024/04/24 02:35:46;;;;;;;28.90;18.00;;;;;;;6.39;100.00;98078.26;272722;1270;23015;-80
2024/04/24 02:42:28;;;;;;;29.20;18.10;;;;;;;6.42;100.00;98073.71;273257;1270;22266;-80
2024/04/24 02:49:10;;;;;;;28.40;18.00;;;;;;;6.41;100.00;98064.06;273195;1270;22289;-82
2024/04/24 02:55:36;;;;;;;28.60;18.10;;;;;;;6.43;100.00;98057.88;273110;1269;22251;-81
2024/04/24 03:01:58;;;;;;;29.00;18.30;;;;;;;6.42;100.00;98051.48;273264;1270;22550;-81
2024/04/24 03:08:01;;;;;;;24.20;17.40;;;;;;;6.40;100.00;98045.65;273221;1269;22448;-80
2024/04/24 03:14:45;;;;;;;25.40;16.40;;;;;;;6.40;100.00;98041.84;273085;1270;24219;-80
2024/04/24 03:20:52;;;;;;;27.00;17.60;;;;;;;6.39;100.00;98038.55;273476;1270;22473;-80
2024/04/24 03:26:55;;;;;;;49.70;23.40;;;;;;;6.36;100.00;98032.54;273014;1269;22375;-81
2024/04/24 03:32:56;;;;;;;34.80;20.50;;;;;;;6.35;100.00;98029.67;273628;1270;22351;-80
2024/04/24 03:38:58;;;;;;;34.20;20.20;;;;;;;6.36;100.00;98027.56;271488;1267;23214;-82
2024/04/24 03:45:21;;;;;;;19.90;14.10;;;;;;;6.33;100.00;98024.52;273557;1269;22455;-81
2024/04/24 03:51:23;;;;;;;30.30;18.10;;;;;;;6.33;100.00;98018.14;272315;1270;23638;-80
2024/04/24 03:57:49;;;;;;;26.70;17.30;;;;;;;6.36;100.00;98013.75;273087;1270;22356;-80
2024/04/24 04:05:09;;;;;;;28.70;18.10;;;;;;;6.38;100.00;98002.83;273550;1269;22223;-81
2024/04/24 04:11:38;;;;;;;27.90;17.40;;;;;;;6.36;100.00;98001.23;273622;1270;22348;-80
2024/04/24 04:18:00;;;;;;;28.10;18.10;;;;;;;6.31;100.00;98005.15;273355;1260;23529;-81
2024/04/24 04:24:18;;;;;;;31.40;18.80;;;;;;;6.27;100.00;98008.35;273284;1270;23173;-81
2024/04/24 04:30:19;;;;;;;29.80;18.90;;;;;;;6.24;100.00;98004.67;273027;1269;22606;-81
2024/04/24 04:36:29;;;;;;;31.10;18.20;;;;;;;6.22;100.00;97996.56;273016;1270;22344;-81
2024/04/24 04:42:31;;;;;;;31.90;20.50;;;;;;;6.19;100.00;97994.98;272338;1269;25323;-80
2024/04/24 04:49:13;;;;;;;30.20;19.90;;;;;;;6.14;100.00;97988.40;272847;1269;22364;-81
2024/04/24 04:55:28;;;;;;;31.60;19.80;;;;;;;6.10;100.00;97983.30;270530;1268;22549;-80
2024/04/24 05:02:00;;;;;;;32.80;19.70;;;;;;;6.11;100.00;97978.27;269425;1269;22565;-80
2024/04/24 05:08:22;;;;;;;37.00;21.90;;;;;;;6.14;100.00;97972.40;270977;1269;22758;-80
2024/04/24 05:15:01;;;;;;;33.20;20.80;;;;;;;6.13;100.00;97971.08;273802;1270;22263;-80
2024/04/24 05:21:05;;;;;;;31.90;20.90;;;;;;;6.12;100.00;97961.52;273564;1270;22382;-81
2024/04/24 05:34:49;;;;;;;32.30;20.50;;;;;;;6.16;100.00;97943.77;273524;1270;22325;-81
2024/04/24 05:40:51;;;;;;;32.00;20.20;;;;;;;6.21;100.00;97936.23;271964;1253;23397;-82
2024/04/24 05:47:03;;;;;;;35.00;20.30;;;;;;;6.24;100.00;97932.46;270865;1269;22589;-80
2024/04/24 05:53:12;;;;;;;35.40;22.00;;;;;;;6.26;100.00;97934.58;272316;1267;22390;-81
2024/04/24 05:59:18;;;;;;;31.70;20.30;;;;;;;6.28;100.00;97931.48;273568;1268;22489;-80
2024/04/24 06:05:22;;;;;;;36.50;22.00;;;;;;;6.28;100.00;97932.50;273082;1269;22439;-82
2024/04/24 06:11:31;;;;;;;36.30;21.50;;;;;;;6.27;100.00;97932.27;272997;1255;23526;-81
2024/04/24 06:17:33;;;;;;;35.30;21.30;;;;;;;6.24;100.00;97927.26;272819;1269;22466;-81
2024/04/24 06:23:56;;;;;;;39.30;23.00;;;;;;;6.24;100.00;97925.31;272669;1270;22310;-81
2024/04/24 06:30:38;;;;;;;35.50;22.00;;;;;;;6.25;100.00;97930.76;272213;1269;23885;-81
2024/04/24 06:36:44;;;;;;;34.00;21.10;;;;;;;6.20;100.00;97929.84;273096;1269;22278;-81
2024/04/24 06:43:26;;;;;;;34.70;20.30;;;;;;;6.14;100.00;97928.38;273065;1269;22253;-81
2024/04/24 06:49:28;;;;;;;45.80;24.70;;;;;;;6.15;100.00;97926.63;273013;1269;22466;-81
2024/04/24 06:56:02;;;;;;;40.80;23.10;;;;;;;6.21;100.00;97925.05;273241;1269;22665;-81
2024/04/24 07:02:27;;;;;;;39.70;22.40;;;;;;;6.27;100.00;97915.27;269344;1269;22561;-82
2024/04/24 07:09:10;;;;;;;35.90;23.60;;;;;;;6.36;100.00;97913.73;269606;1254;23318;-82
2024/04/24 07:15:46;;;;;;;30.80;18.30;;;;;;;6.44;100.00;97905.73;273124;1268;22626;-84
2024/04/24 07:21:48;;;;;;;37.80;24.20;;;;;;;6.47;100.00;97903.42;270834;1269;23355;-84
2024/04/24 07:27:49;;;;;;;43.10;26.60;;;;;;;6.52;100.00;97900.36;270491;1268;22664;-83
2024/04/24 07:33:58;;;;;;;45.00;29.30;;;;;;;6.60;100.00;97899.65;272062;1269;22209;-82
2024/04/24 07:40:10;;;;;;;45.80;26.70;;;;;;;6.66;100.00;97897.14;273630;1269;22276;-81
2024/04/24 07:46:12;;;;;;;42.90;25.90;;;;;;;6.68;100.00;97891.50;273392;1269;22244;-82
2024/04/24 07:52:37;;;;;;;39.20;25.20;;;;;;;6.70;100.00;97885.46;272454;1269;22380;-82
2024/04/24 07:59:19;;;;;;;55.00;29.90;;;;;;;6.79;100.00;97883.27;273401;1271;23192;-82
2024/04/24 08:05:55;;;;;;;50.90;28.40;;;;;;;6.94;100.00;97877.95;271841;1269;22509;-82
2024/04/24 08:11:57;;;;;;;51.10;27.80;;;;;;;7.00;100.00;97877.21;272976;1268;22358;-82
2024/04/24 08:17:58;;;;;;;50.60;28.60;;;;;;;7.08;100.00;97881.71;272565;1269;23446;-80
2024/04/24 08:24:20;;;;;;;51.80;30.50;;;;;;;7.11;100.00;97876.59;273007;1269;22251;-82
2024/04/24 08:30:23;;;;;;;44.50;28.30;;;;;;;7.08;100.00;97871.36;273218;1270;22226;-82
2024/04/24 08:36:26;;;;;;;49.10;28.90;;;;;;;7.15;100.00;97874.21;272512;1262;23537;-80
2024/04/24 08:42:50;;;;;;;51.50;28.80;;;;;;;7.20;100.00;97875.25;272291;1269;25408;-80
2024/04/24 08:48:52;;;;;;;46.10;27.30;;;;;;;7.23;100.00;97875.90;270409;1255;22618;-81
2024/04/24 08:55:03;;;;;;;46.30;26.90;;;;;;;7.31;100.00;97871.20;271437;1269;22507;-81
2024/04/24 09:01:29;;;;;;;47.50;28.30;;;;;;;7.42;100.00;97870.88;273676;1258;22254;-81
2024/04/24 09:07:32;;;;;;;48.00;27.30;;;;;;;7.49;100.00;97865.00;273442;1269;23357;-80
2024/04/24 09:13:34;;;;;;;40.20;25.70;;;;;;;7.68;100.00;97860.81;272534;1268;23516;-81
2024/04/24 09:20:10;;;;;;;44.90;25.70;;;;;;;7.87;100.00;97850.60;273689;1276;22278;-81
2024/04/24 09:27:01;;;;;;;39.40;25.30;;;;;;;8.00;100.00;97847.46;273265;1269;22294;-81
2024/04/24 09:33:46;;;;;;;40.50;24.20;;;;;;;8.15;100.00;97840.58;273105;1270;22509;-81
2024/04/24 09:40:15;;;;;;;42.70;24.90;;;;;;;8.35;100.00;97827.41;273225;1268;22284;-81
2024/04/24 09:46:18;;;;;;;38.40;22.70;;;;;;;8.67;100.00;97821.17;273244;1262;23414;-80
2024/04/24 09:52:49;;;;;;;34.00;22.30;;;;;;;8.89;100.00;97817.51;273447;1272;23093;-81
2024/04/24 10:00:16;;;;;;;37.50;23.80;;;;;;;8.99;100.00;97814.91;272949;1268;23672;-81
2024/04/24 10:06:35;;;;;;;37.40;23.40;;;;;;;9.05;100.00;97805.62;273377;1270;22374;-81
2024/04/24 10:12:56;;;;;;;34.80;20.60;;;;;;;9.20;100.00;97803.32;273418;1270;22278;-81
2024/04/24 10:18:59;;;;;;;28.80;19.90;;;;;;;9.32;100.00;97804.70;271871;1269;22861;-81
2024/04/24 10:25:05;;;;;;;36.10;23.50;;;;;;;9.34;100.00;97804.70;271023;1269;24263;-81
2024/04/24 10:31:29;;;;;;;33.70;22.80;;;;;;;9.26;100.00;97800.04;272531;1261;22648;-81
2024/04/24 10:37:31;;;;;;;32.60;20.50;;;;;;;9.28;100.00;97796.21;272273;1268;23039;-81
2024/04/24 10:44:01;;;;;;;33.00;21.70;;;;;;;9.33;100.00;97792.83;271234;1270;22374;-81
2024/04/24 10:50:16;;;;;;;33.40;19.70;;;;;;;9.34;100.00;97791.27;271075;1270;22378;-81
2024/04/24 10:56:58;;;;;;;31.50;20.40;;;;;;;9.41;100.00;97786.73;273816;1269;22258;-81
2024/04/24 11:03:00;;;;;;;33.00;19.60;;;;;;;9.44;100.00;97787.33;272360;1260;22481;-82
2024/04/24 11:09:44;;;;;;;28.50;19.60;;;;;;;9.49;100.00;97789.49;272532;1267;22919;-81
2024/04/24 11:16:27;;;;;;;32.40;19.90;;;;;;;9.59;99.99;97789.70;268881;1269;5685468;-82
2024/04/24 11:22:52;;;;;;;30.80;18.80;;;;;;;9.70;99.60;97789.58;273928;1270;22976;-81
2024/04/24 11:29:18;;;;;;;31.80;20.90;;;;;;;9.78;99.60;97790.95;273730;1270;23204;-81
2024/04/24 11:35:28;;;;;;;32.00;19.00;;;;;;;9.83;99.24;97791.69;273175;1269;22743;-82
2024/04/24 11:41:30;;;;;;;27.80;17.70;;;;;;;9.89;99.21;97790.48;273245;1268;22224;-82
2024/04/24 11:48:12;;;;;;;28.70;18.00;;;;;;;9.94;98.39;97788.42;272170;1269;22258;-81
2024/04/24 11:55:18;;;;;;;19.30;14.00;;;;;;;9.89;97.77;97787.52;272078;1269;23990;-81
2024/04/24 12:01:32;;;;;;;19.10;13.10;;;;;;;9.87;97.78;97785.48;272181;1269;22427;-81
2024/04/24 12:07:33;;;;;;;20.20;13.80;;;;;;;9.89;97.85;97785.10;273114;1268;22456;-82
2024/04/24 12:13:51;;;;;;;23.90;16.70;;;;;;;9.90;97.49;97779.16;273742;1271;22258;-81
2024/04/24 12:20:16;;;;;;;28.80;17.90;;;;;;;9.82;97.09;97779.05;272717;1268;22407;-81
2024/04/24 12:26:41;;;;;;;25.90;16.50;;;;;;;9.70;97.33;97775.44;273783;1276;22275;-81
2024/04/24 12:33:26;;;;;;;24.10;16.50;;;;;;;9.62;97.23;97776.88;273483;1269;22281;-81
2024/04/24 12:40:29;;;;;;;23.70;15.40;;;;;;;9.49;96.85;97772.41;273338;1269;22251;-81
2024/04/24 12:47:14;;;;;;;26.60;16.50;;;;;;;9.45;97.19;97764.94;271189;1268;22583;-81
2024/04/24 12:53:16;;;;;;;26.20;18.30;;;;;;;9.47;97.72;97765.23;270341;1265;22597;-83
2024/04/24 12:59:21;;;;;;;33.10;21.30;;;;;;;9.41;98.18;97761.66;270653;1269;23778;-81
2024/04/24 13:05:22;;;;;;;31.80;20.40;;;;;;;9.29;99.03;97757.20;271118;1268;22418;-81
2024/04/24 13:11:24;;;;;;;33.00;19.70;;;;;;;9.25;99.53;97754.63;271777;1269;23746;-81
2024/04/24 13:17:26;;;;;;;30.20;20.20;;;;;;;9.23;99.99;97751.52;270084;1268;22652;-81
2024/04/24 13:23:28;;;;;;;30.70;19.20;;;;;;;9.17;99.95;97751.30;269161;1268;23333;-81
2024/04/24 13:29:29;;;;;;;36.30;22.30;;;;;;;9.17;100.00;97750.84;269786;1269;22545;-82
2024/04/24 13:35:31;;;;;;;38.10;23.30;;;;;;;9.10;100.00;97746.26;269547;1268;22717;-82
2024/04/24 13:41:33;;;;;;;30.10;19.70;;;;;;;9.13;100.00;97746.01;269475;1268;22824;-82
2024/04/24 13:48:14;;;;;;;43.10;25.30;;;;;;;9.22;100.00;97745.43;273043;1270;22285;-82
2024/04/24 13:54:18;;;;;;;38.90;24.90;;;;;;;9.24;100.00;97747.23;273015;1268;23371;-81
2024/04/24 14:00:41;;;;;;;42.00;25.60;;;;;;;9.24;100.00;97747.69;270180;1269;23787;-81
2024/04/24 14:07:03;;;;;;;47.50;26.20;;;;;;;9.28;100.00;97747.98;270093;1268;22427;-81
2024/04/24 14:13:05;;;;;;;41.50;24.90;;;;;;;9.31;100.00;97746.02;273811;1270;22274;-81
2024/04/24 14:19:11;;;;;;;39.10;24.70;;;;;;;9.29;100.00;97745.33;270842;1269;22453;-81
2024/04/24 14:25:17;;;;;;;40.10;24.00;;;;;;;9.28;100.00;97750.11;270109;1269;23558;-83
2024/04/24 14:31:21;;;;;;;41.70;25.70;;;;;;;9.26;100.00;97745.34;269966;1269;22536;-81
2024/04/24 14:37:33;;;;;;;40.80;24.10;;;;;;;9.21;100.00;97742.77;269640;1259;22553;-80
2024/04/24 14:43:35;;;;;;;34.10;22.20;;;;;;;9.14;100.00;97736.49;269863;1268;23940;-81
2024/04/24 14:49:37;;;;;;;33.00;21.80;;;;;;;9.12;100.00;97735.41;270857;1268;22620;-80
2024/04/24 14:55:38;;;;;;;32.00;20.10;;;;;;;9.09;99.98;97735.80;269791;1269;22556;-80
2024/04/24 15:02:05;;;;;;;35.50;22.40;;;;;;;9.07;100.00;97728.80;269795;1253;23343;-81
2024/04/24 15:08:07;;;;;;;30.70;20.30;;;;;;;9.05;100.00;97728.81;269728;1269;23778;-81
2024/04/24 15:14:09;;;;;;;28.20;19.00;;;;;;;9.03;100.00;97728.10;269538;1253;23608;-81
2024/04/24 15:20:53;;;;;;;38.20;21.70;;;;;;;8.98;100.00;97721.58;270235;1264;22407;-81
2024/04/24 15:26:55;;;;;;;41.00;21.90;;;;;;;8.89;100.00;97720.73;273069;1270;23003;-82
2024/04/24 15:33:01;;;;;;;38.10;23.30;;;;;;;8.79;100.00;97723.25;270310;1270;22577;-81
2024/04/24 15:39:23;;;;;;;38.40;26.30;;;;;;;8.69;100.00;97723.98;273894;1270;22376;-81
2024/04/24 15:46:01;;;;;;;35.90;22.80;;;;;;;8.60;100.00;97721.89;273775;1270;22914;-82
2024/04/24 15:52:03;;;;;;;37.40;23.90;;;;;;;8.51;100.00;97729.15;273279;1269;22397;-83
2024/04/24 15:58:40;;;;;;;41.70;25.80;;;;;;;8.37;100.00;97733.37;273641;1270;22331;-83
2024/04/24 16:05:05;;;;;;;37.50;23.60;;;;;;;8.29;100.00;97736.64;273884;1269;22261;-83
2024/04/24 16:11:28;;;;;;;48.50;28.60;;;;;;;8.19;100.00;97736.61;273775;1270;22267;-83
2024/04/24 16:18:20;;;;;;;46.20;28.40;;;;;;;8.03;100.00;97738.23;273831;1276;22371;-83
2024/04/24 16:24:50;;;;;;;50.80;30.30;;;;;;;7.94;100.00;97740.94;273807;1271;22258;-84
2024/04/24 16:31:48;;;;;;;50.50;31.80;;;;;;;7.87;100.00;97742.56;273830;1276;22259;-84
2024/04/24 16:38:39;;;;;;;51.40;32.30;;;;;;;7.76;100.00;97746.67;272713;1282;22284;-84
2024/04/24 16:45:31;;;;;;;51.80;32.70;;;;;;;7.67;100.00;97749.14;272620;1275;22296;-84
2024/04/24 16:52:24;;;;;;;50.40;31.80;;;;;;;7.57;100.00;97758.83;272709;1281;23398;-83
2024/04/24 16:58:54;;;;;;;54.10;32.70;;;;;;;7.47;100.00;97766.81;272679;1275;22301;-83
2024/04/24 17:05:20;;;;;;;53.90;33.10;;;;;;;7.33;100.00;97771.27;270809;1275;22715;-84
2024/04/24 17:18:39;;;;;;;64.00;37.20;;;;;;;7.15;100.00;97779.81;271449;1271;22242;-83
2024/04/24 17:25:07;;;;;;;68.50;41.10;;;;;;;7.06;100.00;97782.65;273772;1274;22221;-83
2024/04/24 17:31:32;;;;;;;59.60;37.70;;;;;;;6.96;100.00;97787.17;273664;1271;22225;-84
2024/04/24 17:38:31;;;;;;;55.70;35.70;;;;;;;6.90;100.00;97794.05;273623;1264;22351;-83
2024/04/24 17:45:38;;;;;;;67.50;39.00;;;;;;;6.83;100.00;97795.80;273272;1277;23419;-84
2024/04/24 17:51:47;;;;;;;62.10;37.00;;;;;;;6.74;100.00;97801.09;272694;1270;23073;-84
2024/04/24 18:06:16;;;;;;;63.20;36.50;;;;;;;6.61;100.00;97818.09;273445;1270;22281;-84
2024/04/24 18:19:31;;;;;;;55.30;34.60;;;;;;;6.47;100.00;97835.30;272117;1284;22345;-84
2024/04/24 18:26:08;;;;;;;59.80;37.30;;;;;;;6.42;100.00;97840.08;272254;1278;22339;-84
2024/04/24 18:32:10;;;;;;;64.80;37.20;;;;;;;6.36;100.00;97844.37;272149;1278;23722;-85
2024/04/24 18:39:20;;;;;;;59.00;35.00;;;;;;;6.31;100.00;97854.58;271918;1280;22292;-84
2024/04/24 18:45:27;;;;;;;52.30;32.20;;;;;;;6.22;100.00;97863.73;272317;1284;22292;-85
2024/04/24 18:51:55;;;;;;;57.50;33.20;;;;;;;6.13;100.00;97876.29;272312;1278;22386;-83
2024/04/24 18:58:05;;;;;;;56.00;32.80;;;;;;;6.06;100.00;97882.42;273749;1272;22252;-84
2024/04/24 19:04:30;;;;;;;55.40;30.50;;;;;;;5.99;100.00;97888.33;273241;1272;22281;-84
2024/04/24 19:10:32;;;;;;;50.90;30.60;;;;;;;5.90;100.00;97892.09;271314;1269;22550;-85
2024/04/24 19:16:35;;;;;;;55.50;31.20;;;;;;;5.86;100.00;97894.21;272440;1269;22570;-84
2024/04/24 19:22:55;;;;;;;55.00;32.00;;;;;;;5.81;100.00;97899.48;263951;1270;10002237;-84
2024/04/24 19:29:23;;;;;;;49.90;30.40;;;;;;;5.76;100.00;97899.42;273062;1270;22318;-84
2024/04/24 19:35:54;;;;;;;45.30;28.70;;;;;;;5.73;100.00;97901.23;273870;1269;22266;-85
2024/04/24 19:42:21;;;;;;;49.70;29.50;;;;;;;5.67;100.00;97903.98;273581;1271;22385;-84
2024/04/24 19:49:11;;;;;;;48.10;28.60;;;;;;;5.62;100.00;97910.41;273702;1274;22251;-83
2024/04/24 20:03:35;;;;;;;49.20;29.20;;;;;;;5.59;100.00;97915.41;273681;1270;22383;-83
2024/04/24 20:17:02;;;;;;;45.40;26.40;;;;;;;5.46;100.00;97920.42;273876;1272;22277;-84
2024/04/24 20:23:28;;;;;;;50.40;28.80;;;;;;;5.43;100.00;97919.30;273828;1270;22257;-84
2024/04/24 20:30:00;;;;;;;45.90;26.40;;;;;;;5.40;100.00;97925.23;273759;1270;23665;-84
2024/04/24 20:36:29;;;;;;;46.00;26.50;;;;;;;5.31;100.00;97931.38;273361;1270;23155;-83
2024/04/24 20:42:56;;;;;;;43.20;26.70;;;;;;;5.28;100.00;97936.84;273641;1270;22250;-83
2024/04/24 20:56:06;;;;;;;40.20;24.80;;;;;;;5.24;100.00;97930.73;270427;1269;22519;-84
2024/04/24 21:02:36;;;;;;;48.80;27.50;;;;;;;5.22;100.00;97934.88;272366;1269;22246;-83
2024/04/24 21:09:08;;;;;;;47.80;29.40;;;;;;;5.20;100.00;97935.00;273669;1270;22261;-83
2024/04/24 21:15:25;;;;;;;45.60;28.90;;;;;;;5.15;100.00;97935.23;273864;1271;24336;-83
2024/04/24 21:21:54;;;;;;;47.80;30.40;;;;;;;5.12;100.00;97934.80;273935;1272;23056;-83
2024/04/24 21:28:02;;;;;;;50.70;30.60;;;;;;;5.11;100.00;97935.95;273306;1270;22241;-83
2024/04/24 21:34:21;;;;;;;53.20;31.70;;;;;;;5.10;100.00;97936.80;270134;1269;23490;-83
2024/04/24 21:40:45;;;;;;;58.00;31.30;;;;;;;5.10;100.00;97935.47;273630;1274;22584;-84
2024/04/24 21:46:47;;;;;;;57.70;35.40;;;;;;;5.10;100.00;97932.83;269990;1257;23353;-85
2024/04/24 21:52:53;;;;;;;55.30;33.30;;;;;;;5.07;100.00;97933.10;270287;1269;22577;-83
2024/04/24 22:13:46;;;;;;;54.40;31.20;;;;;;;5.06;100.00;97933.70;270445;1269;23267;-84
2024/04/24 22:20:18;;;;;;;52.30;31.90;;;;;;;5.07;100.00;97939.00;274115;1253;22309;-84
2024/04/24 22:49:10;;;;;;;57.90;34.40;;;;;;;4.89;100.00;97946.75;273865;1270;22902;-84
2024/04/24 22:55:15;;;;;;;56.60;34.10;;;;;;;4.83;100.00;97946.28;272974;1270;23396;-84
2024/04/24 23:02:08;;;;;;;53.80;32.40;;;;;;;4.79;100.00;97950.95;272463;1284;22282;-83
2024/04/24 23:08:13;;;;;;;51.30;31.90;;;;;;;4.74;100.00;97950.22;272599;1276;23599;-83
2024/04/24 23:21:56;;;;;;;52.40;33.50;;;;;;;4.67;100.00;97949.87;272521;1278;22278;-84
2024/04/24 23:28:23;;;;;;;51.70;32.90;;;;;;;4.68;100.00;97950.60;272680;1277;23199;-84
2024/04/24 23:42:03;;;;;;;53.30;34.10;;;;;;;4.63;100.00;97947.25;273906;1271;22280;-83
2024/04/24 23:49:03;;;;;;;54.80;33.70;;;;;;;4.63;100.00;97946.79;273565;1269;22298;-83
